Shahid Ashrafi Esfahani Airport

Airport
ICAO code: 
OICC
IATA Code: 
KSH
Summary
ICAO Region: 
MID
Territory: 
Location: 
Nokan, Kermanshah Province
Serving: 
Kermanshah
Elevation: 
4301 ft
Coordinates: 
Aerial View: 
34° 21' 17.473" N, 47° 8' 49.798" E
Metar
Observation
OICC 261900Z 27012KT 8000 NSC 23/01 Q1011 A2988
Station
Kermanshah
Date/Time
2022-06-26 19:00:00
Wind direction
270°
Wind speed
12 kts
Lowest cloud amount
nil significant cloud
Temperature
23°C
Dew point
1°C
Humidity
23%
QNH
1011 hPa
Weather condition
n/a

Airport serving the city of Kermanshah and surrounding area in Iran.

Climatology

Hot summer Mediterranean climate (Köppen climate classification Csa).

Runways

Designator Length Width Surface Rops
11/29 3418 45 ASP Yes/Yes
Airport map: 
Aerial View: 

SKYbrary Partners:

Safety knowledge contributed by: